Time;durP1;ratioP1;P1;durP2;ratioP2;P2;SDS_P1;SDS_P2;PMS_P1;PMS_P2;Temp;Humidity;BMP_temperature;BMP_pressure;BME280_temperature;BME280_humidity;BME280_pressure;Samples;Min_cycle;Max_cycle;Signal;HPM_P1;HPM_P2
2023/06/25 00:01:55;;;;;;;7.53;3.57;;;;;;;;;;5057096;28;20215;-59
2023/06/25 00:04:23;;;;;;;4.23;3.40;;;;;;;;;;5057121;28;20213;-59
2023/06/25 00:06:51;;;;;;;5.47;4.27;;;;;;;;;;5057263;28;20209;-59
2023/06/25 00:09:19;;;;;;;9.50;4.20;;;;;;;;;;5057082;28;20227;-59
2023/06/25 00:11:48;;;;;;;4.73;4.23;;;;;;;;;;5056703;28;20233;-59
2023/06/25 00:14:17;;;;;;;7.57;4.20;;;;;;;;;;5057951;28;20258;-58
2023/06/25 00:16:45;;;;;;;6.40;4.97;;;;;;;;;;5060955;28;20234;-59
2023/06/25 00:19:13;;;;;;;4.83;4.33;;;;;;;;;;5060382;28;20638;-59
2023/06/25 00:21:41;;;;;;;7.50;4.33;;;;;;;;;;5060909;28;20239;-59
2023/06/25 00:24:09;;;;;;;4.77;4.00;;;;;;;;;;5060715;28;20211;-59
2023/06/25 00:26:37;;;;;;;5.53;4.83;;;;;;;;;;5060336;28;20211;-59
2023/06/25 00:29:05;;;;;;;4.43;4.03;;;;;;;;;;5060289;28;20230;-59
2023/06/25 00:31:35;;;;;;;6.80;4.17;;;;;;;;;;5060331;28;20233;-59
2023/06/25 00:34:03;;;;;;;4.83;4.00;;;;;;;;;;5060257;28;20225;-59
2023/06/25 00:36:36;;;;;;;5.70;3.73;;;;;;;;;;5051241;28;20223;-59
2023/06/25 00:39:05;;;;;;;5.20;4.33;;;;;;;;;;5047841;28;20227;-59
2023/06/25 00:41:33;;;;;;;5.93;4.37;;;;;;;;;;5060204;28;20207;-59
2023/06/25 00:44:03;;;;;;;4.77;4.23;;;;;;;;;;5060436;28;20210;-59
2023/06/25 00:46:31;;;;;;;4.97;4.17;;;;;;;;;;5060307;28;20210;-59
2023/06/25 00:49:05;;;;;;;5.00;4.07;;;;;;;;;;5060489;28;20236;-59
2023/06/25 00:51:35;;;;;;;5.17;4.30;;;;;;;;;;5041931;28;20242;-60
2023/06/25 00:54:05;;;;;;;6.30;4.70;;;;;;;;;;5040336;28;20207;-59
2023/06/25 00:56:33;;;;;;;5.07;4.20;;;;;;;;;;5039682;28;20571;-59
2023/06/25 00:59:03;;;;;;;4.07;3.67;;;;;;;;;;5041347;28;20223;-59
2023/06/25 01:01:36;;;;;;;5.43;4.10;;;;;;;;;;5041035;28;20207;-59
2023/06/25 01:04:09;;;;;;;4.90;4.40;;;;;;;;;;5039778;28;20734;-59
2023/06/25 01:06:40;;;;;;;4.70;3.97;;;;;;;;;;5040094;28;20259;-59
2023/06/25 01:09:10;;;;;;;4.33;3.93;;;;;;;;;;5033952;28;20236;-59
2023/06/25 01:11:38;;;;;;;5.53;4.10;;;;;;;;;;5039612;28;20238;-59
2023/06/25 01:14:06;;;;;;;4.60;4.20;;;;;;;;;;5039922;28;20248;-59
2023/06/25 01:16:34;;;;;;;4.80;4.40;;;;;;;;;;5039676;28;20216;-59
2023/06/25 01:19:03;;;;;;;5.20;4.70;;;;;;;;;;5037816;28;20344;-59
2023/06/25 01:21:34;;;;;;;4.87;4.07;;;;;;;;;;5031680;28;20218;-59
2023/06/25 01:24:04;;;;;;;7.10;4.30;;;;;;;;;;5040102;28;20221;-58
2023/06/25 01:26:34;;;;;;;5.03;4.53;;;;;;;;;;5038672;28;20214;-59
2023/06/25 01:29:02;;;;;;;6.47;4.67;;;;;;;;;;5039396;28;20227;-58
2023/06/25 01:31:31;;;;;;;6.63;5.40;;;;;;;;;;5039269;28;20234;-59
2023/06/25 01:34:00;;;;;;;6.17;4.50;;;;;;;;;;5026792;28;20305;-59
2023/06/25 01:36:28;;;;;;;6.53;5.67;;;;;;;;;;5031509;28;20289;-59
2023/06/25 01:38:56;;;;;;;10.93;6.30;;;;;;;;;;5039021;28;20233;-59
2023/06/25 01:41:25;;;;;;;8.00;5.93;;;;;;;;;;5038904;28;20256;-59
2023/06/25 01:43:53;;;;;;;7.83;6.23;;;;;;;;;;5039024;28;20207;-59
2023/06/25 01:46:21;;;;;;;9.20;7.80;;;;;;;;;;5039026;28;20210;-59
2023/06/25 01:48:49;;;;;;;8.60;7.40;;;;;;;;;;5039057;28;20229;-59
2023/06/25 01:51:17;;;;;;;10.87;9.30;;;;;;;;;;5054024;28;20243;-59
2023/06/25 01:53:45;;;;;;;13.83;10.27;;;;;;;;;;5059235;28;20209;-59
2023/06/25 01:56:13;;;;;;;11.03;9.87;;;;;;;;;;5058773;28;20213;-59
2023/06/25 01:58:43;;;;;;;12.90;10.50;;;;;;;;;;5059430;28;20728;-59
2023/06/25 02:01:11;;;;;;;17.20;11.70;;;;;;;;;;5060778;28;20215;-59
2023/06/25 02:03:39;;;;;;;18.57;12.83;;;;;;;;;;5058674;28;20210;-60
2023/06/25 02:06:07;;;;;;;17.90;13.50;;;;;;;;;;5058768;28;20205;-59
2023/06/25 02:08:35;;;;;;;18.90;13.67;;;;;;;;;;5058365;28;20233;-60
2023/06/25 02:11:03;;;;;;;19.47;13.57;;;;;;;;;;5058125;28;20232;-60
2023/06/25 02:13:31;;;;;;;17.70;13.63;;;;;;;;;;5058455;28;20696;-59
2023/06/25 02:16:01;;;;;;;15.17;12.37;;;;;;;;;;5058339;28;20223;-59
2023/06/25 02:18:29;;;;;;;17.13;12.07;;;;;;;;;;5058218;28;20228;-59
2023/06/25 02:20:57;;;;;;;15.53;11.17;;;;;;;;;;5058389;28;20207;-59
2023/06/25 02:23:25;;;;;;;15.63;11.30;;;;;;;;;;5058190;28;20656;-59
2023/06/25 02:25:53;;;;;;;12.17;9.53;;;;;;;;;;5058169;28;20202;-59
2023/06/25 02:28:21;;;;;;;13.27;9.13;;;;;;;;;;5058158;28;20229;-59
2023/06/25 02:30:49;;;;;;;11.00;7.90;;;;;;;;;;5048179;28;20205;-59
2023/06/25 02:33:18;;;;;;;9.33;6.67;;;;;;;;;;5058570;28;20219;-59
2023/06/25 02:35:47;;;;;;;6.20;5.60;;;;;;;;;;5055284;28;20217;-59
2023/06/25 02:38:15;;;;;;;10.73;6.63;;;;;;;;;;5050227;28;20223;-59
2023/06/25 02:40:43;;;;;;;6.60;5.60;;;;;;;;;;5057885;28;20212;-59
2023/06/25 02:43:11;;;;;;;5.93;5.13;;;;;;;;;;5057896;28;20553;-59
2023/06/25 02:45:39;;;;;;;7.07;5.60;;;;;;;;;;5057861;28;20219;-59
2023/06/25 02:48:07;;;;;;;7.67;5.20;;;;;;;;;;5057629;28;20225;-59
2023/06/25 02:50:36;;;;;;;5.70;4.90;;;;;;;;;;5057781;28;20231;-59
2023/06/25 02:53:04;;;;;;;7.17;4.73;;;;;;;;;;5057583;28;20702;-59
2023/06/25 02:55:32;;;;;;;5.20;4.57;;;;;;;;;;5057761;28;20262;-59
2023/06/25 02:58:00;;;;;;;7.77;5.37;;;;;;;;;;5057332;28;20227;-59
2023/06/25 03:00:28;;;;;;;7.27;4.97;;;;;;;;;;5064601;28;20215;-59
2023/06/25 03:06:20;;;;;;;8.97;4.83;;;;;;;;;;5053557;28;20317;-59
2023/06/25 03:08:51;;;;;;;5.60;4.80;;;;;;;;;;5057693;28;20223;-59
2023/06/25 03:11:19;;;;;;;6.13;4.50;;;;;;;;;;5049582;28;20207;-59
2023/06/25 03:13:47;;;;;;;5.10;4.60;;;;;;;;;;5057289;28;20202;-59
2023/06/25 03:16:15;;;;;;;5.70;4.80;;;;;;;;;;5057290;28;20206;-59
2023/06/25 03:18:43;;;;;;;5.93;4.80;;;;;;;;;;5057064;28;20227;-59
2023/06/25 03:21:11;;;;;;;7.87;4.37;;;;;;;;;;5057118;28;20223;-59
2023/06/25 03:23:40;;;;;;;5.07;4.53;;;;;;;;;;5057184;28;20206;-59
2023/06/25 03:26:08;;;;;;;7.90;5.13;;;;;;;;;;5057215;28;20208;-59
2023/06/25 03:28:36;;;;;;;5.87;5.03;;;;;;;;;;5056719;28;20223;-60
2023/06/25 03:31:04;;;;;;;7.40;5.37;;;;;;;;;;5057052;28;20257;-59
2023/06/25 03:33:32;;;;;;;6.63;5.30;;;;;;;;;;5057275;28;20235;-59
2023/06/25 03:36:00;;;;;;;8.73;5.40;;;;;;;;;;5052235;28;20626;-59
2023/06/25 03:38:28;;;;;;;5.97;5.37;;;;;;;;;;5049218;28;20222;-59
2023/06/25 03:40:58;;;;;;;6.10;4.90;;;;;;;;;;5056931;28;20203;-59
2023/06/25 03:43:25;;;;;;;7.10;5.17;;;;;;;;;;5056879;28;20674;-59
2023/06/25 03:45:53;;;;;;;6.97;5.23;;;;;;;;;;5056988;28;20215;-59
2023/06/25 03:48:21;;;;;;;6.90;4.77;;;;;;;;;;5056725;28;20601;-59
2023/06/25 03:50:50;;;;;;;6.27;4.63;;;;;;;;;;5048600;28;20238;-59
2023/06/25 03:53:18;;;;;;;7.33;4.97;;;;;;;;;;5040649;28;20235;-59
2023/06/25 03:55:46;;;;;;;5.67;5.00;;;;;;;;;;5040642;28;20253;-59
2023/06/25 03:58:15;;;;;;;5.87;4.73;;;;;;;;;;5034903;28;20228;-59
2023/06/25 04:00:44;;;;;;;8.80;4.73;;;;;;;;;;5049709;28;20575;-59
2023/06/25 04:03:12;;;;;;;5.63;4.50;;;;;;;;;;5041052;28;20257;-59
2023/06/25 04:05:41;;;;;;;4.90;4.37;;;;;;;;;;5040947;28;20599;-59
2023/06/25 04:08:08;;;;;;;8.53;4.47;;;;;;;;;;5040963;28;20230;-59
2023/06/25 04:10:36;;;;;;;6.23;4.90;;;;;;;;;;5027381;28;20199;-59
2023/06/25 04:13:04;;;;;;;6.10;4.77;;;;;;;;;;5040670;28;20228;-59
2023/06/25 04:15:34;;;;;;;6.50;5.17;;;;;;;;;;5040965;28;20211;-59
2023/06/25 04:18:02;;;;;;;5.40;4.90;;;;;;;;;;5040879;28;20326;-59
2023/06/25 04:20:31;;;;;;;5.20;4.70;;;;;;;;;;5040460;28;20210;-59
2023/06/25 04:23:00;;;;;;;6.20;5.07;;;;;;;;;;5040625;28;20213;-59
2023/06/25 04:25:28;;;;;;;5.73;4.47;;;;;;;;;;5040870;28;20229;-59
2023/06/25 04:27:56;;;;;;;7.43;4.83;;;;;;;;;;5040232;28;20695;-59
2023/06/25 04:30:24;;;;;;;5.40;4.60;;;;;;;;;;5040441;28;20207;-59
2023/06/25 04:32:54;;;;;;;5.10;4.60;;;;;;;;;;5040578;28;20238;-59
2023/06/25 04:35:22;;;;;;;5.53;4.90;;;;;;;;;;5040348;28;20219;-58
2023/06/25 04:37:50;;;;;;;5.77;4.70;;;;;;;;;;5034520;28;20227;-59
2023/06/25 04:40:18;;;;;;;5.67;5.07;;;;;;;;;;5040350;28;20213;-59
2023/06/25 04:42:46;;;;;;;6.03;5.07;;;;;;;;;;5040038;28;20685;-59
2023/06/25 04:45:14;;;;;;;5.57;4.23;;;;;;;;;;5040311;28;20695;-59
2023/06/25 04:47:42;;;;;;;7.30;4.67;;;;;;;;;;5040297;28;20223;-58
2023/06/25 04:50:12;;;;;;;5.23;4.30;;;;;;;;;;5030881;28;20243;-58
2023/06/25 04:52:40;;;;;;;7.73;4.80;;;;;;;;;;5040007;28;20290;-59
2023/06/25 04:55:08;;;;;;;5.73;4.40;;;;;;;;;;5039990;28;20670;-59
2023/06/25 04:57:36;;;;;;;7.00;4.83;;;;;;;;;;5037551;28;20709;-59
2023/06/25 05:00:05;;;;;;;5.03;4.40;;;;;;;;;;5045000;28;20207;-59
2023/06/25 05:02:33;;;;;;;5.67;4.40;;;;;;;;;;5039371;28;20203;-58
2023/06/25 05:05:01;;;;;;;5.77;4.83;;;;;;;;;;5039909;28;20215;-59
2023/06/25 05:07:30;;;;;;;5.33;4.73;;;;;;;;;;5039692;28;20641;-58
2023/06/25 05:09:58;;;;;;;5.43;4.30;;;;;;;;;;5039903;28;20259;-59
2023/06/25 05:12:26;;;;;;;5.27;4.40;;;;;;;;;;5039543;28;20211;-59
2023/06/25 05:14:54;;;;;;;5.43;4.50;;;;;;;;;;5039805;28;20261;-59
2023/06/25 05:17:22;;;;;;;6.03;4.57;;;;;;;;;;5039822;28;20220;-59
2023/06/25 05:19:50;;;;;;;4.63;4.17;;;;;;;;;;5039730;28;20218;-59
2023/06/25 05:22:18;;;;;;;4.47;3.87;;;;;;;;;;5039742;28;20667;-59
2023/06/25 05:24:48;;;;;;;5.37;4.23;;;;;;;;;;5039443;28;20706;-58
2023/06/25 05:27:16;;;;;;;4.90;3.87;;;;;;;;;;5039382;28;20212;-58
2023/06/25 05:29:44;;;;;;;6.33;4.60;;;;;;;;;;5039545;28;20266;-59
2023/06/25 05:32:12;;;;;;;6.50;3.93;;;;;;;;;;5039326;28;20207;-59
2023/06/25 05:34:39;;;;;;;6.80;4.70;;;;;;;;;;5039013;28;20591;-59
2023/06/25 05:37:07;;;;;;;6.53;4.70;;;;;;;;;;5039445;28;20219;-59
2023/06/25 05:39:35;;;;;;;6.50;4.73;;;;;;;;;;5039019;28;20225;-59
2023/06/25 05:42:05;;;;;;;6.40;4.17;;;;;;;;;;5038965;28;20232;-59
2023/06/25 05:44:33;;;;;;;5.93;4.80;;;;;;;;;;5039306;28;20211;-59
2023/06/25 05:47:01;;;;;;;5.07;4.57;;;;;;;;;;5039246;28;20213;-59
2023/06/25 05:49:29;;;;;;;6.10;4.67;;;;;;;;;;5038861;28;20228;-59
2023/06/25 05:51:57;;;;;;;7.07;4.57;;;;;;;;;;5038962;28;20221;-59
2023/06/25 05:54:25;;;;;;;5.47;4.40;;;;;;;;;;5039112;28;20229;-59
2023/06/25 05:56:53;;;;;;;7.37;4.60;;;;;;;;;;5038750;28;20204;-59
2023/06/25 05:59:23;;;;;;;4.90;4.40;;;;;;;;;;5035793;28;20229;-59
2023/06/25 06:01:51;;;;;;;5.63;4.60;;;;;;;;;;5044814;28;20204;-59
2023/06/25 06:04:19;;;;;;;4.77;4.13;;;;;;;;;;5038951;28;20213;-60
2023/06/25 06:06:47;;;;;;;5.97;5.20;;;;;;;;;;5038557;28;20263;-58
2023/06/25 06:09:16;;;;;;;6.60;5.20;;;;;;;;;;5038808;28;20229;-59
2023/06/25 06:11:44;;;;;;;5.53;4.80;;;;;;;;;;5038215;28;20240;-58
2023/06/25 06:14:11;;;;;;;8.63;4.37;;;;;;;;;;5038655;28;20235;-59
2023/06/25 06:16:41;;;;;;;6.03;4.33;;;;;;;;;;5038449;28;20216;-59
2023/06/25 06:19:09;;;;;;;4.90;4.17;;;;;;;;;;5038363;28;20283;-59
2023/06/25 06:21:37;;;;;;;9.97;4.10;;;;;;;;;;5038535;28;20214;-59
2023/06/25 06:24:05;;;;;;;6.20;4.70;;;;;;;;;;5038321;28;20264;-59
2023/06/25 06:26:35;;;;;;;6.27;3.83;;;;;;;;;;5038232;28;20209;-59
2023/06/25 06:29:03;;;;;;;4.80;4.27;;;;;;;;;;5038097;28;20229;-58
2023/06/25 06:31:32;;;;;;;5.37;4.87;;;;;;;;;;5026873;28;20214;-58
2023/06/25 06:34:01;;;;;;;4.40;4.00;;;;;;;;;;5037975;28;20226;-59
2023/06/25 06:36:29;;;;;;;4.97;4.43;;;;;;;;;;5034462;28;20228;-59
2023/06/25 06:38:57;;;;;;;4.87;4.07;;;;;;;;;;5038031;28;20320;-59
2023/06/25 06:41:25;;;;;;;4.60;4.13;;;;;;;;;;5037710;28;20237;-59
2023/06/25 06:43:53;;;;;;;4.27;3.87;;;;;;;;;;5037671;28;20220;-59
2023/06/25 06:46:21;;;;;;;5.53;3.93;;;;;;;;;;5037448;28;20261;-60
2023/06/25 06:48:49;;;;;;;5.43;4.10;;;;;;;;;;5038447;28;20574;-59
2023/06/25 06:51:18;;;;;;;5.87;4.10;;;;;;;;;;5039677;28;20243;-60
2023/06/25 06:53:46;;;;;;;6.77;4.83;;;;;;;;;;5037388;28;20234;-60
2023/06/25 06:56:14;;;;;;;4.57;3.80;;;;;;;;;;5037185;28;20204;-60
2023/06/25 06:58:43;;;;;;;4.33;3.93;;;;;;;;;;5028233;28;20227;-60
2023/06/25 07:01:11;;;;;;;4.80;4.03;;;;;;;;;;5038911;28;20214;-60
2023/06/25 07:03:39;;;;;;;6.53;4.17;;;;;;;;;;5034822;28;20208;-60
2023/06/25 07:06:08;;;;;;;4.10;3.57;;;;;;;;;;5036822;28;20217;-60
2023/06/25 07:08:37;;;;;;;5.50;3.80;;;;;;;;;;5037033;28;20220;-60
2023/06/25 07:11:05;;;;;;;4.70;4.17;;;;;;;;;;5036635;28;20670;-60
2023/06/25 07:13:33;;;;;;;4.43;4.03;;;;;;;;;;5036852;28;20227;-60
2023/06/25 07:16:01;;;;;;;7.20;3.80;;;;;;;;;;5037356;28;20205;-60
2023/06/25 07:18:29;;;;;;;3.73;3.43;;;;;;;;;;5036883;28;20272;-60
2023/06/25 07:20:57;;;;;;;5.87;4.30;;;;;;;;;;5036370;28;20218;-60
2023/06/25 07:23:25;;;;;;;5.73;4.30;;;;;;;;;;5037569;28;20205;-60
2023/06/25 07:25:55;;;;;;;4.40;3.65;;;;;;;;;;5040269;28;20720;-60
2023/06/25 07:28:23;;;;;;;4.90;3.72;;;;;;;;;;5043361;28;20281;-60
2023/06/25 07:30:51;;;;;;;4.32;3.92;;;;;;;;;;5041735;28;20202;-60
2023/06/25 07:33:19;;;;;;;5.40;4.47;;;;;;;;;;5043341;28;20219;-60
2023/06/25 07:35:47;;;;;;;4.75;3.88;;;;;;;;;;5040581;28;20773;-60
2023/06/25 07:38:15;;;;;;;6.10;4.25;;;;;;;;;;5040188;28;20300;-60
2023/06/25 07:40:43;;;;;;;4.28;3.92;;;;;;;;;;5043565;28;20209;-60
2023/06/25 07:43:12;;;;;;;4.53;4.13;;;;;;;;;;5044044;28;20207;-60
2023/06/25 07:45:40;;;;;;;4.72;4.22;;;;;;;;;;5043909;28;20214;-60
2023/06/25 07:48:09;;;;;;;7.25;4.78;;;;;;;;;;5043445;28;20779;-60
2023/06/25 07:50:37;;;;;;;4.63;4.18;;;;;;;;;;5053139;28;20238;-60
2023/06/25 07:53:05;;;;;;;4.70;4.30;;;;;;;;;;5063470;28;20204;-60
2023/06/25 07:55:40;;;;;;;4.95;4.50;;;;;;;;;;5063401;28;20278;-60
2023/06/25 07:58:28;;;;;;;5.70;4.60;;;;;;;;;;5043693;28;20318;-60
2023/06/25 08:00:56;;;;;;;5.43;4.47;;;;;;;;;;5066018;28;20204;-60
2023/06/25 08:03:24;;;;;;;7.13;4.27;;;;;;;;;;5063425;28;20207;-60
2023/06/25 08:05:53;;;;;;;5.40;4.40;;;;;;;;;;5063535;28;20282;-60
2023/06/25 08:08:21;;;;;;;6.03;4.93;;;;;;;;;;5063058;28;20226;-60
2023/06/25 08:10:51;;;;;;;8.17;4.47;;;;;;;;;;5063179;28;20549;-60
2023/06/25 08:13:20;;;;;;;5.15;4.55;;;;;;;;;;5055417;28;20264;-60
2023/06/25 08:15:49;;;;;;;6.00;4.70;;;;;;;;;;5063533;28;20287;-60
2023/06/25 08:18:17;;;;;;;5.18;4.20;;;;;;;;;;5063555;28;20234;-60
2023/06/25 08:20:46;;;;;;;4.65;4.20;;;;;;;;;;5063419;28;20205;-60
2023/06/25 08:23:14;;;;;;;4.63;4.20;;;;;;;;;;5063324;28;20219;-60
2023/06/25 08:25:42;;;;;;;4.78;3.63;;;;;;;;;;5063064;28;20198;-60
2023/06/25 08:28:10;;;;;;;4.85;3.88;;;;;;;;;;5062938;28;20665;-60
2023/06/25 08:30:38;;;;;;;4.30;3.83;;;;;;;;;;5068193;28;20209;-60
2023/06/25 08:33:07;;;;;;;5.07;3.85;;;;;;;;;;5065609;28;20206;-60
2023/06/25 08:35:35;;;;;;;4.70;4.20;;;;;;;;;;5060457;28;20226;-60
2023/06/25 08:38:04;;;;;;;4.47;4.07;;;;;;;;;;5058358;28;20233;-60
2023/06/25 08:40:32;;;;;;;6.10;4.30;;;;;;;;;;5059728;28;20214;-60
2023/06/25 08:43:00;;;;;;;4.80;4.40;;;;;;;;;;5059867;28;20750;-60
2023/06/25 08:45:28;;;;;;;4.15;3.75;;;;;;;;;;5060113;28;20246;-60
2023/06/25 08:47:57;;;;;;;4.93;3.58;;;;;;;;;;5059722;28;20274;-60
2023/06/25 08:50:27;;;;;;;6.57;4.33;;;;;;;;;;5051342;28;20632;-60
2023/06/25 08:52:55;;;;;;;4.17;3.77;;;;;;;;;;5040089;28;20234;-60
2023/06/25 08:55:25;;;;;;;4.67;3.97;;;;;;;;;;5039659;28;20235;-60
2023/06/25 08:57:53;;;;;;;5.37;3.50;;;;;;;;;;5035550;28;20224;-60
2023/06/25 09:00:21;;;;;;;4.18;3.78;;;;;;;;;;5034830;28;20270;-60
2023/06/25 09:02:49;;;;;;;4.95;3.90;;;;;;;;;;5039521;28;20209;-60
2023/06/25 09:05:23;;;;;;;4.10;3.70;;;;;;;;;;5039390;28;20208;-60
2023/06/25 09:07:53;;;;;;;4.38;3.78;;;;;;;;;;5039612;28;20224;-60
2023/06/25 09:10:22;;;;;;;4.57;3.80;;;;;;;;;;5039521;28;20213;-60
2023/06/25 09:12:50;;;;;;;4.70;3.88;;;;;;;;;;5039519;28;20214;-60
2023/06/25 09:15:21;;;;;;;5.18;3.95;;;;;;;;;;5039270;28;20238;-60
2023/06/25 09:17:50;;;;;;;5.07;4.38;;;;;;;;;;5039553;28;20266;-60
2023/06/25 09:20:18;;;;;;;5.57;4.20;;;;;;;;;;5038857;28;20210;-60
2023/06/25 09:22:50;;;;;;;5.47;3.73;;;;;;;;;;5039559;28;20246;-60
2023/06/25 09:25:19;;;;;;;7.10;4.55;;;;;;;;;;5039208;28;20735;-60
2023/06/25 09:27:48;;;;;;;4.50;4.03;;;;;;;;;;5039409;28;20237;-60
2023/06/25 09:30:18;;;;;;;4.65;4.25;;;;;;;;;;5041076;28;20213;-60
2023/06/25 09:32:49;;;;;;;4.43;4.03;;;;;;;;;;5044315;28;20205;-60
2023/06/25 09:35:21;;;;;;;5.18;4.15;;;;;;;;;;5038945;28;20687;-60
2023/06/25 09:37:50;;;;;;;6.07;4.13;;;;;;;;;;5036025;28;20229;-60
2023/06/25 09:40:20;;;;;;;3.90;3.58;;;;;;;;;;5039269;28;20213;-60
2023/06/25 09:42:49;;;;;;;4.30;3.72;;;;;;;;;;5039106;28;20203;-60
2023/06/25 09:45:17;;;;;;;6.28;4.47;;;;;;;;;;5039224;28;20203;-60
2023/06/25 09:47:46;;;;;;;4.25;3.88;;;;;;;;;;5038141;28;20607;-58
2023/06/25 09:50:18;;;;;;;4.20;3.78;;;;;;;;;;5038418;28;20243;-60
2023/06/25 09:52:48;;;;;;;5.65;3.92;;;;;;;;;;5038696;28;20214;-60
2023/06/25 09:55:17;;;;;;;4.20;3.80;;;;;;;;;;5038561;28;20712;-60
2023/06/25 09:57:47;;;;;;;7.25;3.90;;;;;;;;;;5035208;28;20224;-60
2023/06/25 10:00:16;;;;;;;5.18;4.13;;;;;;;;;;5033446;28;20211;-60
2023/06/25 10:02:44;;;;;;;5.63;4.03;;;;;;;;;;5038727;28;20213;-60
2023/06/25 10:05:13;;;;;;;5.45;4.15;;;;;;;;;;5038542;28;20204;-60
2023/06/25 10:07:41;;;;;;;4.82;3.75;;;;;;;;;;5038198;28;20223;-59
2023/06/25 10:10:19;;;;;;;6.03;4.50;;;;;;;;;;5037770;28;20211;-60
2023/06/25 10:12:49;;;;;;;4.20;3.80;;;;;;;;;;5038612;28;20211;-58
2023/06/25 10:15:27;;;;;;;4.65;4.15;;;;;;;;;;5038230;28;20230;-60
2023/06/25 10:17:57;;;;;;;6.82;4.20;;;;;;;;;;5038440;28;20238;-58
2023/06/25 10:20:27;;;;;;;6.65;4.07;;;;;;;;;;5038381;28;20211;-61
2023/06/25 10:23:07;;;;;;;5.13;4.43;;;;;;;;;;5038002;28;20211;-60
2023/06/25 10:25:36;;;;;;;4.25;3.88;;;;;;;;;;5037837;28;20686;-58
2023/06/25 10:28:08;;;;;;;7.22;4.00;;;;;;;;;;5037160;28;20571;-60
2023/06/25 10:30:36;;;;;;;5.10;4.25;;;;;;;;;;5042686;28;20202;-58
2023/06/25 10:33:05;;;;;;;6.35;3.90;;;;;;;;;;5040464;28;20207;-57
2023/06/25 10:35:37;;;;;;;4.88;4.45;;;;;;;;;;5037052;28;20226;-58
2023/06/25 10:38:06;;;;;;;4.93;4.53;;;;;;;;;;5036830;28;20285;-61
2023/06/25 10:40:36;;;;;;;4.72;4.30;;;;;;;;;;5037658;28;20674;-61
2023/06/25 10:43:04;;;;;;;4.20;3.80;;;;;;;;;;5037890;28;20207;-60
2023/06/25 10:45:34;;;;;;;6.88;4.57;;;;;;;;;;5037624;28;20199;-60
2023/06/25 10:48:03;;;;;;;4.65;4.13;;;;;;;;;;5037643;28;20237;-60
2023/06/25 10:50:31;;;;;;;6.82;3.90;;;;;;;;;;5037561;28;20245;-60
2023/06/25 10:52:59;;;;;;;6.72;4.22;;;;;;;;;;5037720;28;20217;-60
2023/06/25 10:55:27;;;;;;;4.43;4.03;;;;;;;;;;5037745;28;20217;-60
2023/06/25 10:57:56;;;;;;;4.60;4.18;;;;;;;;;;5032666;28;20727;-60
2023/06/25 11:00:24;;;;;;;5.70;4.03;;;;;;;;;;5032274;28;20220;-61
2023/06/25 11:02:54;;;;;;;4.53;4.22;;;;;;;;;;5037130;28;20215;-61
2023/06/25 11:05:31;;;;;;;4.80;4.13;;;;;;;;;;5037321;28;20214;-60
2023/06/25 11:07:59;;;;;;;4.80;4.38;;;;;;;;;;5037133;28;20254;-61
2023/06/25 11:10:28;;;;;;;5.07;4.68;;;;;;;;;;5037123;28;20233;-61
2023/06/25 11:12:56;;;;;;;7.75;4.55;;;;;;;;;;5037583;28;20218;-60
2023/06/25 11:15:24;;;;;;;5.65;3.80;;;;;;;;;;5037235;28;20211;-60
2023/06/25 11:17:53;;;;;;;4.82;4.43;;;;;;;;;;5036898;28;20572;-61
2023/06/25 11:20:23;;;;;;;4.45;3.85;;;;;;;;;;5036916;28;20673;-61
2023/06/25 11:22:51;;;;;;;4.68;4.05;;;;;;;;;;5037650;28;20235;-61
2023/06/25 11:25:20;;;;;;;4.07;3.78;;;;;;;;;;5037310;28;20217;-61
2023/06/25 11:27:48;;;;;;;4.28;3.90;;;;;;;;;;5037136;28;20652;-61
2023/06/25 11:30:16;;;;;;;4.85;3.78;;;;;;;;;;5039213;28;20265;-61
2023/06/25 11:32:44;;;;;;;7.20;4.07;;;;;;;;;;5042463;28;20227;-60
2023/06/25 11:35:14;;;;;;;4.72;4.22;;;;;;;;;;5036645;28;20208;-61
2023/06/25 11:37:43;;;;;;;4.95;4.28;;;;;;;;;;5036968;28;20235;-59
2023/06/25 11:40:20;;;;;;;5.55;5.05;;;;;;;;;;5037013;28;20617;-59
2023/06/25 11:42:48;;;;;;;5.35;4.30;;;;;;;;;;5036810;28;20211;-59
2023/06/25 11:45:16;;;;;;;4.55;4.15;;;;;;;;;;5037288;28;20211;-62
2023/06/25 11:47:45;;;;;;;4.40;4.00;;;;;;;;;;5037002;28;20230;-61
2023/06/25 11:50:15;;;;;;;4.18;3.78;;;;;;;;;;5043226;28;20265;-61
2023/06/25 11:52:43;;;;;;;6.15;4.25;;;;;;;;;;5056684;28;20210;-60
2023/06/25 11:55:11;;;;;;;4.72;4.32;;;;;;;;;;5057266;28;20211;-61
2023/06/25 11:57:39;;;;;;;5.30;4.65;;;;;;;;;;5054442;28;20233;-59
2023/06/25 12:00:08;;;;;;;4.65;4.22;;;;;;;;;;5049988;28;20221;-59
2023/06/25 12:02:36;;;;;;;4.80;4.35;;;;;;;;;;5043975;28;20234;-60
2023/06/25 12:05:17;;;;;;;4.88;4.38;;;;;;;;;;5057007;28;20206;-60
2023/06/25 12:07:45;;;;;;;5.30;4.70;;;;;;;;;;5056590;28;20238;-60
2023/06/25 12:10:13;;;;;;;5.72;4.13;;;;;;;;;;5057126;28;20211;-60
2023/06/25 12:12:41;;;;;;;4.75;4.20;;;;;;;;;;5060784;28;20215;-60
2023/06/25 12:15:09;;;;;;;4.97;4.47;;;;;;;;;;5060498;28;20209;-60
2023/06/25 12:17:37;;;;;;;5.68;4.28;;;;;;;;;;5060326;28;20238;-60
2023/06/25 12:20:06;;;;;;;4.78;4.05;;;;;;;;;;5060501;28;20214;-60
2023/06/25 12:22:35;;;;;;;5.95;4.38;;;;;;;;;;5060379;28;20209;-61
2023/06/25 12:25:04;;;;;;;7.25;4.68;;;;;;;;;;5060164;28;20211;-62
2023/06/25 12:27:32;;;;;;;7.65;4.55;;;;;;;;;;5060206;28;20238;-61
2023/06/25 12:30:00;;;;;;;6.03;4.43;;;;;;;;;;5060194;28;20222;-62
2023/06/25 12:32:28;;;;;;;5.38;4.70;;;;;;;;;;5053130;28;20230;-60
2023/06/25 12:34:56;;;;;;;5.35;4.85;;;;;;;;;;5059800;28;20206;-59
2023/06/25 12:37:24;;;;;;;7.15;6.38;;;;;;;;;;5057105;28;20237;-59
2023/06/25 12:39:54;;;;;;;18.13;14.77;;;;;;;;;;5060434;28;20221;-60
2023/06/25 12:42:22;;;;;;;16.65;11.90;;;;;;;;;;5059933;28;20202;-59
2023/06/25 12:44:50;;;;;;;33.08;29.48;;;;;;;;;;5060174;28;20237;-59
2023/06/25 12:47:18;;;;;;;35.72;31.80;;;;;;;;;;5060022;28;20206;-59
2023/06/25 12:49:46;;;;;;;18.90;16.60;;;;;;;;;;5057293;28;20239;-58
2023/06/25 12:52:14;;;;;;;25.67;23.00;;;;;;;;;;5040207;28;20211;-59
2023/06/25 12:54:43;;;;;;;22.27;18.15;;;;;;;;;;5040072;28;20218;-59
2023/06/25 12:57:12;;;;;;;18.00;16.10;;;;;;;;;;5039549;28;20250;-59
2023/06/25 12:59:40;;;;;;;20.00;13.30;;;;;;;;;;5030000;28;20214;-59
2023/06/25 13:02:08;;;;;;;6.70;6.00;;;;;;;;;;5039600;28;20207;-58
2023/06/25 13:04:36;;;;;;;19.83;13.60;;;;;;;;;;5040041;28;20213;-59
2023/06/25 13:07:04;;;;;;;15.10;12.63;;;;;;;;;;5039529;28;20210;-59
2023/06/25 13:09:33;;;;;;;13.77;10.55;;;;;;;;;;5039538;28;20255;-59
2023/06/25 13:12:01;;;;;;;14.63;10.07;;;;;;;;;;5039620;28;20203;-60
2023/06/25 13:14:31;;;;;;;7.70;6.88;;;;;;;;;;5039973;28;20283;-60
2023/06/25 13:16:59;;;;;;;13.93;9.13;;;;;;;;;;5039137;28;20231;-61
2023/06/25 13:19:27;;;;;;;11.77;8.95;;;;;;;;;;5039464;28;20227;-61
2023/06/25 13:21:55;;;;;;;13.40;8.65;;;;;;;;;;5038642;28;20218;-59
2023/06/25 13:24:23;;;;;;;8.23;6.13;;;;;;;;;;5039131;28;20222;-59
2023/06/25 13:26:52;;;;;;;6.97;6.32;;;;;;;;;;5039250;28;20218;-59
2023/06/25 13:29:26;;;;;;;7.68;5.10;;;;;;;;;;5039357;28;20223;-59
2023/06/25 13:31:55;;;;;;;7.68;6.13;;;;;;;;;;5046442;28;20250;-59
2023/06/25 13:34:23;;;;;;;7.05;6.20;;;;;;;;;;5038381;28;20258;-59
2023/06/25 13:36:51;;;;;;;5.95;5.43;;;;;;;;;;5035852;28;20211;-59
2023/06/25 13:39:19;;;;;;;6.53;5.82;;;;;;;;;;5038942;28;20254;-59
2023/06/25 13:41:47;;;;;;;6.55;5.70;;;;;;;;;;5038788;28;20203;-59
2023/06/25 13:44:15;;;;;;;6.20;5.50;;;;;;;;;;5038758;28;20659;-59
2023/06/25 13:46:43;;;;;;;7.30;4.32;;;;;;;;;;5038854;28;20211;-59
2023/06/25 13:49:13;;;;;;;6.78;5.13;;;;;;;;;;5038845;28;20287;-59
2023/06/25 13:51:41;;;;;;;5.65;5.05;;;;;;;;;;5057154;28;20235;-59
2023/06/25 13:54:09;;;;;;;5.03;4.57;;;;;;;;;;5058783;28;20210;-59
2023/06/25 13:56:37;;;;;;;5.18;4.68;;;;;;;;;;5058682;28;20207;-60
2023/06/25 13:59:05;;;;;;;5.10;4.28;;;;;;;;;;5048663;28;20229;-59
2023/06/25 14:01:33;;;;;;;7.32;4.18;;;;;;;;;;5058586;28;20262;-60
2023/06/25 14:04:01;;;;;;;4.57;4.18;;;;;;;;;;5058599;28;20210;-60
2023/06/25 14:06:30;;;;;;;5.47;4.25;;;;;;;;;;5058299;28;20700;-60
2023/06/25 14:08:58;;;;;;;5.38;4.60;;;;;;;;;;5057969;28;20560;-60
2023/06/25 14:11:26;;;;;;;5.97;5.47;;;;;;;;;;5058197;28;20202;-59
2023/06/25 14:13:55;;;;;;;5.00;4.15;;;;;;;;;;5058424;28;20245;-60
2023/06/25 14:16:23;;;;;;;6.00;4.65;;;;;;;;;;5058107;28;20210;-60
2023/06/25 14:18:51;;;;;;;4.85;4.45;;;;;;;;;;5058209;28;20234;-61
2023/06/25 14:21:19;;;;;;;4.80;4.30;;;;;;;;;;5058329;28;20203;-60
2023/06/25 14:23:49;;;;;;;8.10;5.18;;;;;;;;;;5058111;28;20206;-61
2023/06/25 14:26:17;;;;;;;9.52;5.13;;;;;;;;;;5057869;28;20206;-60
2023/06/25 14:28:45;;;;;;;6.95;5.60;;;;;;;;;;5057918;28;20771;-62
2023/06/25 14:31:19;;;;;;;5.75;4.50;;;;;;;;;;5065171;28;20198;-60
2023/06/25 14:33:47;;;;;;;5.25;4.75;;;;;;;;;;5058045;28;20207;-60
2023/06/25 14:36:15;;;;;;;6.13;5.53;;;;;;;;;;5054499;28;20674;-60
2023/06/25 14:38:43;;;;;;;5.47;4.97;;;;;;;;;;5057928;28;20238;-61
2023/06/25 14:41:13;;;;;;;4.80;4.40;;;;;;;;;;5056888;28;20214;-61
2023/06/25 14:43:41;;;;;;;4.88;4.43;;;;;;;;;;5053983;28;20260;-61
2023/06/25 14:46:17;;;;;;;5.10;4.38;;;;;;;;;;5057570;28;20546;-63
2023/06/25 14:48:46;;;;;;;4.85;4.15;;;;;;;;;;5057609;28;20265;-62
2023/06/25 14:51:14;;;;;;;8.18;5.20;;;;;;;;;;5042591;28;20239;-63
2023/06/25 14:53:43;;;;;;;5.95;4.90;;;;;;;;;;5037601;28;20550;-64